Flight Track Log - Related Links

Times and Time Zones

All times are in EDT time to prevent confusion due to time zone crossing. See the SWA471 flight status page for this flight to view local times or setup timezone preferences in your user account.

Time Position Orientation Groundspeed Altitude Reporting Facility
EDT Latitude Longitude Course Direction KTS MPH feet Rate Location/Type
Mon 09:27:03 PM 39.3439 -94.7275 343° North 163 188 2,900  Level Kansas City Center
Mon 09:28:04 PM 39.3575 -94.8144 281° West 238 274 6,700 3,194 Climbing Kansas City Center
Mon 09:29:07 PM 39.3011 -94.8450 203° Southwest 262 302 9,500 2,565 Climbing Kansas City Center
Mon 09:30:08 PM 39.2356 -94.8622 192° South 251 289 12,000 2,705 Climbing Kansas City Center
Mon 09:31:09 PM 39.1392 -94.8858 191° South 312 359 15,000 2,557 Climbing Kansas City Center
Mon 09:32:10 PM 39.0556 -94.9081 192° South 318 366 17,200 2,115 Climbing Kansas City Center
Mon 09:33:11 PM 38.9639 -94.9308 191° South 346 398 19,300 2,115 Climbing Kansas City Center
Mon 09:34:12 PM 38.8531 -94.9575 191° South 361 415 21,500 2,098 Climbing Kansas City Center
Mon 09:35:14 PM 38.7550 -94.9828 191° South 371 427 23,600 1,728 Climbing Kansas City Center
Mon 09:36:17 PM 38.6378 -95.0122 191° South 385 443 25,100 1,536 Climbing Kansas City Center
Mon 09:37:19 PM 38.5308 -95.0383 191° South 404 465 26,800 1,902 Climbing Kansas City Center
Mon 09:38:20 PM 38.4256 -95.0661 192° South 402 463 29,000 2,098 Climbing Kansas City Center
Mon 09:39:22 PM 38.3047 -95.0958 191° South 397 457 31,100 1,820 Climbing Kansas City Center
Mon 09:40:22 PM 38.2025 -95.1183 190° South 392 451 32,700 1,785 Climbing Kansas City Center
Mon 09:41:23 PM 38.0850 -95.1572 195° South 388 447 34,700 1,597 Climbing Kansas City Center
Mon 09:42:26 PM 37.9900 -95.1897 195° South 373 429 36,000 629 Climbing Kansas City Center
Mon 09:43:27 PM 37.8919 -95.2231 195° South 374 430 36,000  Level Kansas City Center
Mon 09:44:30 PM 37.7897 -95.2569 195° South 378 435 36,000  Level Kansas City Center
Mon 09:45:30 PM 37.6792 -95.2714 186° South 394 453 36,000  Level Kansas City Center
Mon 09:46:31 PM 37.5467 -95.2875 186° South 397 457 36,000  Level Kansas City Center
Mon 09:47:33 PM 37.4361 -95.3033 186° South 399 459 36,000  Level Kansas City Center
Mon 09:48:34 PM 37.3250 -95.3194 187° South 401 461 36,000  Level Kansas City Center
Mon 09:49:35 PM 37.2136 -95.3361 187° South 402 463 36,000  Level Kansas City Center
Mon 09:50:36 PM 37.1008 -95.3486 185° South 403 464 36,000  Level Kansas City Center
Mon 09:51:39 PM 36.9872 -95.3592 184° South 407 468 36,000  Level Kansas City Center
Mon 09:52:41 PM 36.8747 -95.3722 185° South 406 467 36,000  Level Kansas City Center
Mon 09:53:42 PM 36.7636 -95.3836 185° South 402 463 36,000  Level Kansas City Center
Mon 09:54:42 PM 36.6536 -95.3933 184° South 397 457 36,000  Level Kansas City Center
Mon 09:55:44 PM 36.5344 -95.3761 173° South 398 458 36,000  Level Kansas City Center
Mon 09:56:44 PM 36.4233 -95.3619 174° South 399 459 36,000  Level Kansas City Center
Mon 09:57:48 PM 36.3122 -95.3478 174° South 400 460 36,000  Level Kansas City Center
Mon 09:58:48 PM 36.2017 -95.3350 175° South 400 460 36,000  Level Kansas City Center
Mon 09:59:49 PM 36.0897 -95.3325 179° South 402 463 36,000  Level Kansas City Center
Mon 10:00:50 PM 35.9747 -95.3278 178° South 406 467 36,000  Level Kansas City Center
Mon 10:01:53 PM 35.8372 -95.3206 178° South 410 472 36,000  Level Kansas City Center
Mon 10:02:54 PM 35.7281 -95.3144 177° South 398 458 36,000 -98 Level Kansas City Center
Mon 10:03:55 PM 35.6189 -95.3069 177° South 392 451 35,800 -516 Descending Kansas City Center
Mon 10:04:27 PM 35.5492 -95.3064 180° South 407 468 35,200 -522 Descending Fort Worth Center
Mon 10:05:27 PM 35.4364 -95.2989 177° South 407 468 35,000 -100 Descending Fort Worth Center
Mon 10:06:27 PM 35.3258 -95.2942 178° South 407 468 35,000  Level Fort Worth Center
Mon 10:07:27 PM 35.2131 -95.2892 178° South 407 468 35,000  Level Fort Worth Center
Mon 10:08:27 PM 35.0983 -95.2819 177° South 407 468 35,000  Level Fort Worth Center
Mon 10:09:27 PM 34.9833 -95.2747 177° South 407 468 35,000 -200 Level Fort Worth Center
Mon 10:10:27 PM 34.8861 -95.3178 200° South 387 445 34,600 -700 Descending Fort Worth Center
Mon 10:11:27 PM 34.7953 -95.3756 208° Southwest 380 437 33,600 -1,000 Descending Fort Worth Center
Mon 10:12:27 PM 34.7022 -95.4308 206° Southwest 374 430 32,600 -950 Descending Fort Worth Center
Mon 10:13:27 PM 34.6136 -95.4908 209° Southwest 374 430 31,700 -900 Descending Fort Worth Center
Mon 10:14:27 PM 34.5186 -95.5536 209° Southwest 374 430 30,800 -950 Descending Fort Worth Center
Mon 10:15:27 PM 34.4233 -95.6133 207° Southwest 384 442 29,800 -950 Descending Fort Worth Center
Mon 10:16:27 PM 34.3261 -95.6733 207° Southwest 390 449 28,900 -1,100 Descending Fort Worth Center
Mon 10:17:27 PM 34.2311 -95.7331 207° Southwest 390 449 27,600 -1,850 Descending Fort Worth Center
Mon 10:18:27 PM 34.1358 -95.7925 207° Southwest 384 442 25,200 -2,300 Descending Fort Worth Center
Mon 10:19:27 PM 34.0572 -95.8442 209° Southwest 379 436 23,000 -2,350 Descending Fort Worth Center
Mon 10:20:27 PM 33.9619 -95.8983 205° Southwest 373 429 20,500 -2,500 Descending Fort Worth Center
Mon 10:21:27 PM 33.8686 -95.9650 211° Southwest 368 423 18,000 -2,350 Descending Fort Worth Center
Mon 10:22:27 PM 33.7900 -96.0089 205° Southwest 347 399 15,800 -2,250 Descending Fort Worth Center
Mon 10:23:27 PM 33.7008 -96.0653 208° Southwest 336 387 13,500 -2,100 Descending Fort Worth Center
Mon 10:24:27 PM 33.6303 -96.1061 206° Southwest 320 368 11,600 -1,750 Descending Fort Worth Center
Mon 10:25:27 PM 33.5494 -96.1572 208° Southwest 310 357 10,000 -800 Descending Fort Worth Center
Mon 10:26:27 PM 33.4850 -96.1981 208° Southwest 284 327 10,000  Level Fort Worth Center
Mon 10:27:27 PM 33.4228 -96.2361 207° Southwest 264 304 10,000 -250 Level Fort Worth Center
Mon 10:28:27 PM 33.3606 -96.2769 209° Southwest 259 298 9,500 -700 Descending Fort Worth Center
Mon 10:29:27 PM 33.3025 -96.3197 212° Southwest 259 298 8,600 -900 Descending Fort Worth Center
Mon 10:30:27 PM 33.2572 -96.3875 231° Southwest 259 298 7,700 -1,000 Descending Fort Worth Center
Mon 10:31:27 PM 33.2139 -96.4525 231° Southwest 259 298 6,600 -1,000 Descending Fort Worth Center
Mon 10:32:27 PM 33.1725 -96.5150 232° Southwest 254 292 5,700 -900 Descending Fort Worth Center
Mon 10:33:27 PM 33.1333 -96.5750 232° Southwest 254 292 4,800 -850 Descending Fort Worth Center
Mon 10:34:27 PM 33.0878 -96.6447 232° Southwest 254 292 4,000 -436 Descending Fort Worth Center
Mon 10:35:17 PM 33.0500 -96.7000 231° Southwest 224 258 4,000  Level Dallas / Fort Worth TRACON
Mon 10:36:11 PM 33.0167 -96.7500 232° Southwest 223 257 4,000 -495 Level Dallas / Fort Worth TRACON
Mon 10:37:06 PM 32.9833 -96.8000 232° Southwest 213 245 3,100 -522 Descending Dallas / Fort Worth TRACON
Mon 10:38:06 PM 32.9500 -96.8500 232° Southwest 181 208 3,000 -158 Descending Dallas / Fort Worth TRACON
Mon 10:39:00 PM 32.9333 -96.8833 239° Southwest 128 147 2,800 -497 Descending Dallas / Fort Worth TRACON
Mon 10:41:07 PM 32.8833 -96.9000 196° South 114 131 1,500 -610 Descending Dallas / Fort Worth TRACON
Mon 10:42:07 PM 32.8667 -96.8833 140° Southeast 119 137 900 -600 Descending Dallas / Fort Worth TRACON
Mon 10:44:00 PM 32.8471 -96.8518 228° Southwest  Level Estimated
Mon 10:51:00 PM 32.8471 -96.8518 228° Southwest  Level Estimated

Login

Don't have an account? Register now (free) for customized features, flight alerts, and more!